sensor_id;sensor_type;location;lat;lon;timestamp;temperature;humidity
13659;DHT22;6902;52.158;11.574;2022-10-16T00:01:58;16.10;99.90
13659;DHT22;6902;52.158;11.574;2022-10-16T00:04:25;16.10;99.90
13659;DHT22;6902;52.158;11.574;2022-10-16T00:06:53;16.10;99.90
13659;DHT22;6902;52.158;11.574;2022-10-16T00:09:20;16.10;99.90
13659;DHT22;6902;52.158;11.574;2022-10-16T01:06:19;16.00;99.90
13659;DHT22;6902;52.158;11.574;2022-10-16T01:08:58;15.50;99.90
13659;DHT22;6902;52.158;11.574;2022-10-16T01:11:33;15.50;99.90
13659;DHT22;6902;52.158;11.574;2022-10-16T01:14:05;15.50;99.90
13659;DHT22;6902;52.158;11.574;2022-10-16T01:16:36;15.40;99.90
13659;DHT22;6902;52.158;11.574;2022-10-16T01:19:09;15.40;99.90
13659;DHT22;6902;52.158;11.574;2022-10-16T01:21:41;15.40;99.90
13659;DHT22;6902;52.158;11.574;2022-10-16T01:24:17;15.40;99.90
13659;DHT22;6902;52.158;11.574;2022-10-16T01:27:13;15.40;99.90
13659;DHT22;6902;52.158;11.574;2022-10-16T01:29:48;15.40;99.90
13659;DHT22;6902;52.158;11.574;2022-10-16T01:32:22;15.40;99.90
13659;DHT22;6902;52.158;11.574;2022-10-16T01:34:53;15.40;99.90
13659;DHT22;6902;52.158;11.574;2022-10-16T01:37:26;15.40;99.90
13659;DHT22;6902;52.158;11.574;2022-10-16T01:39:58;15.40;99.90
13659;DHT22;6902;52.158;11.574;2022-10-16T01:42:31;15.40;99.90
13659;DHT22;6902;52.158;11.574;2022-10-16T01:45:01;15.40;99.90
13659;DHT22;6902;52.158;11.574;2022-10-16T01:47:30;15.40;99.90
13659;DHT22;6902;52.158;11.574;2022-10-16T01:49:58;15.40;99.90
13659;DHT22;6902;52.158;11.574;2022-10-16T01:52:26;15.40;99.90
13659;DHT22;6902;52.158;11.574;2022-10-16T01:54:56;15.30;99.90
13659;DHT22;6902;52.158;11.574;2022-10-16T01:57:25;15.30;99.90
13659;DHT22;6902;52.158;11.574;2022-10-16T01:59:57;15.30;99.90
13659;DHT22;6902;52.158;11.574;2022-10-16T02:02:26;15.30;99.90
13659;DHT22;6902;52.158;11.574;2022-10-16T02:04:58;15.30;99.90
13659;DHT22;6902;52.158;11.574;2022-10-16T02:07:27;15.30;99.90
13659;DHT22;6902;52.158;11.574;2022-10-16T02:14:55;15.30;99.90
13659;DHT22;6902;52.158;11.574;2022-10-16T02:17:23;15.30;99.90
13659;DHT22;6902;52.158;11.574;2022-10-16T02:19:53;15.20;99.90
13659;DHT22;6902;52.158;11.574;2022-10-16T02:22:26;15.20;99.90
13659;DHT22;6902;52.158;11.574;2022-10-16T02:24:57;15.20;99.90
13659;DHT22;6902;52.158;11.574;2022-10-16T02:27:29;15.20;99.90
13659;DHT22;6902;52.158;11.574;2022-10-16T02:30:05;15.20;99.90
13659;DHT22;6902;52.158;11.574;2022-10-16T02:32:37;15.20;99.90
13659;DHT22;6902;52.158;11.574;2022-10-16T02:35:05;15.10;99.90
13659;DHT22;6902;52.158;11.574;2022-10-16T02:37:35;15.20;99.90
13659;DHT22;6902;52.158;11.574;2022-10-16T02:40:05;15.10;99.90
13659;DHT22;6902;52.158;11.574;2022-10-16T02:42:36;15.10;99.90
13659;DHT22;6902;52.158;11.574;2022-10-16T02:45:06;15.10;99.90
13659;DHT22;6902;52.158;11.574;2022-10-16T02:47:33;15.10;99.90
13659;DHT22;6902;52.158;11.574;2022-10-16T02:50:00;15.10;99.90
13659;DHT22;6902;52.158;11.574;2022-10-16T02:52:27;15.10;99.90
13659;DHT22;6902;52.158;11.574;2022-10-16T02:54:54;15.10;99.90
13659;DHT22;6902;52.158;11.574;2022-10-16T02:57:22;15.10;99.90
13659;DHT22;6902;52.158;11.574;2022-10-16T02:59:49;15.10;99.90
13659;DHT22;6902;52.158;11.574;2022-10-16T03:02:17;15.10;99.90
13659;DHT22;6902;52.158;11.574;2022-10-16T03:04:45;15.20;99.90
13659;DHT22;6902;52.158;11.574;2022-10-16T03:07:12;15.20;99.90
13659;DHT22;6902;52.158;11.574;2022-10-16T03:09:39;15.20;99.90
13659;DHT22;6902;52.158;11.574;2022-10-16T03:12:06;15.20;99.90
13659;DHT22;6902;52.158;11.574;2022-10-16T03:14:33;15.20;99.90
13659;DHT22;6902;52.158;11.574;2022-10-16T03:17:00;15.20;99.90
13659;DHT22;6902;52.158;11.574;2022-10-16T03:19:29;15.20;99.90
13659;DHT22;6902;52.158;11.574;2022-10-16T03:21:56;15.20;99.90
13659;DHT22;6902;52.158;11.574;2022-10-16T03:24:23;15.20;99.90
13659;DHT22;6902;52.158;11.574;2022-10-16T03:26:49;15.20;99.90
13659;DHT22;6902;52.158;11.574;2022-10-16T03:29:16;15.10;99.90
13659;DHT22;6902;52.158;11.574;2022-10-16T03:31:43;15.20;99.90
13659;DHT22;6902;52.158;11.574;2022-10-16T03:34:10;15.20;99.90
13659;DHT22;6902;52.158;11.574;2022-10-16T03:36:38;15.10;99.90
13659;DHT22;6902;52.158;11.574;2022-10-16T03:39:06;15.10;99.90
13659;DHT22;6902;52.158;11.574;2022-10-16T03:41:32;15.10;99.90
13659;DHT22;6902;52.158;11.574;2022-10-16T03:43:59;15.10;99.90
13659;DHT22;6902;52.158;11.574;2022-10-16T03:46:26;15.10;99.90
13659;DHT22;6902;52.158;11.574;2022-10-16T03:48:54;15.10;99.90
13659;DHT22;6902;52.158;11.574;2022-10-16T03:51:20;15.10;99.90
13659;DHT22;6902;52.158;11.574;2022-10-16T03:53:49;15.10;99.90
13659;DHT22;6902;52.158;11.574;2022-10-16T03:56:16;15.10;99.90
13659;DHT22;6902;52.158;11.574;2022-10-16T03:58:43;15.10;99.90
13659;DHT22;6902;52.158;11.574;2022-10-16T04:01:10;15.10;99.90
13659;DHT22;6902;52.158;11.574;2022-10-16T04:03:36;15.10;99.90
13659;DHT22;6902;52.158;11.574;2022-10-16T04:06:04;15.10;99.90
13659;DHT22;6902;52.158;11.574;2022-10-16T04:08:30;15.10;99.90
13659;DHT22;6902;52.158;11.574;2022-10-16T04:11:01;15.10;99.90
13659;DHT22;6902;52.158;11.574;2022-10-16T04:13:28;15.10;99.90
13659;DHT22;6902;52.158;11.574;2022-10-16T04:15:56;15.10;99.90
13659;DHT22;6902;52.158;11.574;2022-10-16T04:18:23;15.10;99.90
13659;DHT22;6902;52.158;11.574;2022-10-16T04:20:53;15.10;99.90
13659;DHT22;6902;52.158;11.574;2022-10-16T04:23:19;15.10;99.90
13659;DHT22;6902;52.158;11.574;2022-10-16T04:25:48;15.10;99.90
13659;DHT22;6902;52.158;11.574;2022-10-16T04:28:17;15.10;99.90
13659;DHT22;6902;52.158;11.574;2022-10-16T04:30:43;15.10;99.90
13659;DHT22;6902;52.158;11.574;2022-10-16T04:33:10;15.00;99.90
13659;DHT22;6902;52.158;11.574;2022-10-16T04:35:38;15.00;99.90
13659;DHT22;6902;52.158;11.574;2022-10-16T04:38:06;15.00;99.90
13659;DHT22;6902;52.158;11.574;2022-10-16T04:40:33;15.00;99.90
13659;DHT22;6902;52.158;11.574;2022-10-16T04:43:02;15.00;99.90
13659;DHT22;6902;52.158;11.574;2022-10-16T11:12:17;14.60;99.90
13659;DHT22;6902;52.158;11.574;2022-10-16T11:14:49;20.90;99.90
13659;DHT22;6902;52.158;11.574;2022-10-16T11:17:23;20.60;99.90
13659;DHT22;6902;52.158;11.574;2022-10-16T11:19:56;20.60;99.90
13659;DHT22;6902;52.158;11.574;2022-10-16T11:22:30;20.40;99.90
13659;DHT22;6902;52.158;11.574;2022-10-16T11:25:04;20.40;99.90
13659;DHT22;6902;52.158;11.574;2022-10-16T11:27:37;20.30;99.90
13659;DHT22;6902;52.158;11.574;2022-10-16T11:30:14;20.10;99.90
13659;DHT22;6902;52.158;11.574;2022-10-16T11:32:54;20.30;99.90
13659;DHT22;6902;52.158;11.574;2022-10-16T11:35:30;20.20;99.90
13659;DHT22;6902;52.158;11.574;2022-10-16T11:38:02;20.40;99.90
13659;DHT22;6902;52.158;11.574;2022-10-16T11:40:37;20.50;99.90
